createdAt,value
2023-04-13T00:02:28.594Z,89.08
2023-04-13T00:05:00.907Z,89.06
2023-04-13T00:07:33.999Z,89.11
2023-04-13T00:10:11.008Z,88.93
2023-04-13T00:12:41.162Z,88.83
2023-04-13T00:15:13.484Z,88.81
2023-04-13T00:17:46.528Z,88.88
2023-04-13T00:20:17.840Z,88.83
2023-04-13T00:22:48.883Z,88.87
2023-04-13T00:25:21.989Z,88.79
2023-04-13T00:27:55.345Z,88.88
2023-04-13T00:30:26.217Z,88.95
2023-04-13T00:32:57.108Z,89.05
2023-04-13T00:35:29.962Z,89.01
2023-04-13T00:38:10.258Z,89.20
2023-04-13T00:40:41.098Z,89.28
2023-04-13T00:43:11.929Z,89.41
2023-04-13T00:45:47.777Z,89.51
2023-04-13T00:48:20.552Z,89.50
2023-04-13T00:50:51.986Z,89.48
2023-04-13T00:53:24.724Z,89.56
2023-04-13T00:55:58.320Z,89.57
2023-04-13T00:58:28.934Z,89.57
2023-04-13T01:00:59.556Z,89.51
2023-04-13T01:03:31.876Z,89.52
2023-04-13T01:06:11.605Z,89.45
2023-04-13T01:08:51.881Z,89.42
2023-04-13T01:11:41.486Z,89.35
2023-04-13T01:14:27.740Z,89.33
2023-04-13T01:17:02.433Z,89.36
2023-04-13T01:20:06.456Z,89.22
2023-04-13T01:22:39.850Z,89.16
2023-04-13T01:25:22.721Z,89.19
2023-04-13T01:28:06.435Z,88.91
2023-04-13T01:30:38.816Z,88.81
2023-04-13T01:33:11.319Z,88.83
2023-04-13T01:35:42.269Z,88.55
2023-04-13T01:38:14.348Z,88.72
2023-04-13T01:40:46.092Z,88.49
2023-04-13T01:43:16.687Z,88.57
2023-04-13T01:45:55.899Z,88.53
2023-04-13T01:48:51.915Z,88.68
2023-04-13T01:51:29.402Z,88.63
2023-04-13T01:54:12.887Z,88.52
2023-04-13T01:56:45.528Z,88.37
2023-04-13T01:59:16.920Z,88.34
2023-04-13T02:01:48.815Z,88.25
2023-04-13T02:04:20.013Z,88.15
2023-04-13T02:06:51.579Z,87.67
2023-04-13T02:09:23.722Z,87.69
2023-04-13T02:11:55.380Z,87.59
2023-04-13T02:14:26.175Z,87.19
2023-04-13T02:16:58.432Z,87.40
2023-04-13T02:19:30.187Z,87.67
2023-04-13T02:22:01.240Z,87.28
2023-04-13T02:24:32.885Z,86.67
2023-04-13T02:27:04.118Z,86.89
2023-04-13T02:29:35.008Z,86.36
2023-04-13T02:32:07.977Z,85.88
2023-04-13T02:34:38.694Z,86.12
2023-04-13T02:37:09.495Z,85.79
2023-04-13T02:39:41.155Z,85.75
2023-04-13T02:42:12.036Z,85.52
2023-04-13T02:44:43.225Z,85.39
2023-04-13T02:47:14.684Z,85.70
2023-04-13T02:49:47.139Z,85.83
2023-04-13T02:52:18.002Z,85.79
2023-04-13T02:54:53.352Z,85.47
2023-04-13T02:57:25.208Z,85.55
2023-04-13T02:59:55.710Z,85.67
2023-04-13T03:02:27.993Z,85.57
2023-04-13T03:05:00.412Z,86.10
2023-04-13T03:07:31.874Z,86.28
2023-04-13T03:10:05.890Z,86.35
2023-04-13T03:12:37.730Z,86.52
2023-04-13T03:15:10.712Z,86.44
2023-04-13T03:17:44.085Z,86.42
2023-04-13T03:20:16.446Z,86.26
2023-04-13T03:22:47.256Z,86.26
2023-04-13T03:25:17.953Z,86.10
2023-04-13T03:27:48.661Z,85.93
2023-04-13T03:30:19.674Z,85.69
2023-04-13T03:32:51.827Z,85.42
2023-04-13T03:35:22.299Z,85.57
2023-04-13T03:37:52.994Z,85.41
2023-04-13T03:40:24.375Z,85.10
2023-04-13T03:42:54.886Z,85.06
2023-04-13T03:45:25.910Z,85.33
2023-04-13T03:47:56.547Z,85.40
2023-04-13T03:50:28.579Z,85.38
2023-04-13T03:52:58.996Z,84.85
2023-04-13T03:55:29.915Z,84.85
2023-04-13T03:58:03.826Z,85.00
2023-04-13T04:00:36.097Z,85.04
2023-04-13T04:03:09.019Z,85.04
2023-04-13T04:05:42.141Z,84.91
2023-04-13T04:08:12.535Z,84.72
2023-04-13T04:10:44.903Z,85.05
2023-04-13T04:13:17.790Z,85.16
2023-04-13T04:15:48.472Z,84.49
2023-04-13T04:18:20.415Z,84.61
2023-04-13T04:20:51.269Z,84.46
2023-04-13T04:23:24.966Z,84.49
2023-04-13T04:25:57.692Z,84.26
2023-04-13T04:28:30.571Z,84.49
2023-04-13T04:31:04.051Z,83.78
2023-04-13T04:33:36.057Z,83.91
2023-04-13T04:36:15.036Z,84.16
2023-04-13T04:38:47.625Z,84.09
2023-04-13T04:41:19.741Z,84.29
2023-04-13T04:43:50.286Z,84.07
2023-04-13T04:46:22.202Z,84.05
2023-04-13T04:48:55.552Z,83.90
2023-04-13T04:51:27.988Z,83.93
2023-04-13T04:54:00.311Z,84.03
2023-04-13T04:56:33.102Z,84.21
2023-04-13T04:59:04.776Z,84.40
2023-04-13T05:01:35.923Z,84.65
2023-04-13T05:04:08.067Z,84.63
2023-04-13T05:06:41.705Z,84.63
2023-04-13T05:09:12.716Z,84.77
2023-04-13T05:11:43.283Z,84.82
2023-04-13T05:14:15.549Z,84.74
2023-04-13T05:16:47.915Z,84.70
2023-04-13T05:19:18.848Z,84.52
2023-04-13T05:21:51.240Z,84.36
2023-04-13T05:24:21.746Z,84.39
2023-04-13T05:26:53.156Z,84.27
2023-04-13T05:29:24.952Z,84.45
2023-04-13T05:31:57.678Z,84.35
2023-04-13T05:34:32.359Z,84.48
2023-04-13T05:37:05.424Z,84.29
2023-04-13T05:39:36.298Z,84.24
2023-04-13T05:42:08.676Z,84.48
2023-04-13T05:44:39.321Z,84.17
2023-04-13T05:47:11.839Z,84.20
2023-04-13T05:49:42.469Z,84.05
2023-04-13T05:52:14.736Z,84.00
2023-04-13T05:54:45.661Z,84.01
2023-04-13T05:57:18.393Z,84.07
2023-04-13T05:59:48.868Z,84.64
2023-04-13T06:02:20.568Z,84.31
2023-04-13T06:04:52.929Z,83.99
2023-04-13T06:07:24.176Z,83.43
2023-04-13T06:09:55.472Z,83.18
2023-04-13T06:12:32.181Z,83.47
2023-04-13T06:15:03.669Z,82.91
2023-04-13T06:17:36.449Z,83.02
2023-04-13T06:20:11.098Z,82.28
2023-04-13T06:22:43.273Z,82.44
2023-04-13T06:25:15.161Z,81.19
2023-04-13T06:27:50.006Z,80.50
2023-04-13T06:30:24.123Z,80.79
2023-04-13T06:32:55.237Z,80.88
2023-04-13T06:35:26.106Z,80.67
2023-04-13T06:37:59.631Z,80.20
2023-04-13T06:40:32.517Z,79.96
2023-04-13T06:43:03.846Z,79.40
2023-04-13T06:45:37.164Z,78.67
2023-04-13T06:48:08.051Z,78.26
2023-04-13T06:50:42.595Z,78.36
2023-04-13T06:53:13.016Z,78.21
2023-04-13T06:55:45.033Z,77.47
2023-04-13T06:58:16.578Z,76.98
2023-04-13T07:00:48.949Z,76.20
2023-04-13T07:03:19.663Z,76.52
2023-04-13T07:05:51.988Z,76.04
2023-04-13T07:08:22.907Z,75.78
2023-04-13T07:10:58.843Z,75.38
2023-04-13T07:13:31.023Z,74.91
2023-04-13T07:16:01.879Z,75.32
2023-04-13T07:18:32.680Z,74.76
2023-04-13T07:21:04.444Z,74.19
2023-04-13T07:23:35.521Z,73.48
2023-04-13T07:26:08.504Z,72.38
2023-04-13T07:28:42.325Z,73.03
2023-04-13T07:31:13.581Z,72.94
2023-04-13T07:33:44.287Z,73.17
2023-04-13T07:36:15.290Z,71.91
2023-04-13T07:38:46.417Z,71.19
2023-04-13T07:41:19.705Z,71.08
2023-04-13T07:43:51.708Z,71.30
2023-04-13T07:46:24.116Z,71.00
2023-04-13T07:48:57.010Z,70.63
2023-04-13T07:51:27.544Z,70.51
2023-04-13T07:53:58.027Z,69.09
2023-04-13T07:56:30.979Z,69.19
2023-04-13T07:59:03.078Z,68.65
2023-04-13T08:01:34.845Z,68.88
2023-04-13T08:04:05.607Z,68.23
2023-04-13T08:06:37.002Z,67.52
2023-04-13T08:09:08.156Z,67.75
2023-04-13T08:11:38.650Z,64.83
2023-04-13T08:14:12.243Z,66.12
2023-04-13T08:16:46.468Z,65.92
2023-04-13T08:19:18.157Z,65.71
2023-04-13T08:21:49.895Z,65.22
2023-04-13T08:24:24.321Z,64.64
2023-04-13T08:26:57.339Z,64.45
2023-04-13T08:29:29.874Z,64.97
2023-04-13T08:32:00.489Z,64.63
2023-04-13T08:34:33.329Z,65.08
2023-04-13T08:37:05.883Z,63.80
2023-04-13T08:39:38.022Z,63.25
2023-04-13T08:42:08.761Z,61.71
2023-04-13T08:44:45.506Z,61.44
2023-04-13T08:47:16.988Z,61.48
2023-04-13T08:49:49.661Z,60.93
2023-04-13T08:52:24.476Z,60.78
2023-04-13T08:55:01.004Z,61.07
2023-04-13T08:57:34.957Z,61.39
2023-04-13T09:00:11.047Z,61.22
2023-04-13T09:03:00.232Z,60.11
2023-04-13T09:05:17.480Z,60.19
2023-04-13T09:07:53.836Z,59.68
2023-04-13T09:10:26.304Z,60.71
2023-04-13T09:12:57.441Z,59.28
2023-04-13T09:15:27.978Z,58.10
2023-04-13T09:18:10.843Z,57.29
2023-04-13T09:20:41.428Z,57.50
2023-04-13T09:23:16.545Z,57.01
2023-04-13T09:25:48.795Z,56.19
2023-04-13T09:28:21.255Z,56.97
2023-04-13T09:30:53.587Z,56.57
2023-04-13T09:33:24.233Z,56.59
2023-04-13T09:35:54.660Z,55.85
2023-04-13T09:38:28.351Z,55.51
2023-04-13T09:41:00.814Z,56.37
2023-04-13T09:43:38.809Z,56.38
2023-04-13T09:46:16.182Z,55.83
2023-04-13T09:48:46.879Z,54.45
2023-04-13T09:51:20.342Z,53.65
2023-04-13T09:53:53.620Z,54.14
2023-04-13T09:56:25.934Z,53.81
2023-04-13T09:58:58.203Z,54.37
2023-04-13T10:01:31.856Z,55.13
2023-04-13T10:04:03.477Z,53.79
2023-04-13T10:06:40.030Z,54.10
2023-04-13T10:09:12.784Z,53.29
2023-04-13T10:11:47.218Z,53.29
2023-04-13T10:14:28.416Z,53.52
2023-04-13T10:17:17.104Z,52.71
2023-04-13T10:19:50.788Z,51.93
2023-04-13T10:22:24.114Z,52.24
2023-04-13T10:24:56.375Z,52.65
2023-04-13T10:27:29.249Z,52.88
2023-04-13T10:30:01.731Z,52.55
2023-04-13T10:32:32.444Z,53.18
2023-04-13T10:35:13.424Z,53.84
2023-04-13T10:37:45.722Z,53.30
2023-04-13T10:40:17.282Z,53.16
2023-04-13T10:42:52.874Z,51.54
2023-04-13T10:45:32.408Z,50.39
2023-04-13T10:48:06.392Z,50.42
2023-04-13T10:50:38.697Z,49.73
2023-04-13T10:53:10.886Z,49.39
2023-04-13T10:55:41.518Z,49.57
2023-04-13T10:58:18.398Z,49.80
2023-04-13T11:00:53.768Z,48.98
2023-04-13T11:03:27.497Z,49.78
2023-04-13T11:05:59.986Z,50.19
2023-04-13T11:08:32.980Z,50.37
2023-04-13T11:11:03.477Z,51.16
2023-04-13T11:13:34.018Z,51.20
2023-04-13T11:16:08.025Z,50.94
2023-04-13T11:18:38.594Z,49.80
2023-04-13T11:21:17.343Z,51.32
2023-04-13T11:23:55.300Z,51.74
2023-04-13T11:26:36.255Z,52.97
2023-04-13T11:29:07.148Z,51.68
2023-04-13T11:31:40.151Z,51.09
2023-04-13T11:34:13.025Z,50.59
2023-04-13T11:36:48.667Z,50.63
2023-04-13T11:39:24.071Z,50.03
2023-04-13T11:41:57.329Z,50.45
2023-04-13T11:44:28.016Z,49.13
2023-04-13T11:47:00.237Z,48.64
2023-04-13T11:49:33.032Z,48.01
2023-04-13T11:52:10.554Z,48.27
2023-04-13T11:54:40.616Z,48.42
2023-04-13T11:57:11.621Z,48.25
2023-04-13T11:59:42.930Z,48.21
2023-04-13T12:02:22.087Z,49.06
2023-04-13T12:04:50.302Z,49.41
2023-04-13T12:07:23.392Z,48.72
2023-04-13T12:09:58.312Z,48.07
2023-04-13T12:12:51.095Z,46.83
2023-04-13T12:15:19.563Z,47.03
2023-04-13T12:17:43.998Z,47.14
2023-04-13T12:20:15.923Z,47.99
2023-04-13T12:22:57.697Z,48.45
2023-04-13T12:25:24.421Z,48.88
2023-04-13T12:27:55.540Z,49.00
2023-04-13T12:30:27.368Z,47.67
2023-04-13T12:32:59.161Z,47.48
2023-04-13T12:35:32.689Z,47.07
2023-04-13T12:38:06.007Z,48.25
2023-04-13T12:40:38.164Z,49.57
2023-04-13T12:43:09.152Z,51.03
2023-04-13T12:45:41.629Z,51.31
2023-04-13T12:48:15.466Z,51.24
2023-04-13T12:50:51.054Z,50.73
2023-04-13T12:53:22.404Z,50.66
2023-04-13T12:55:54.759Z,51.09
2023-04-13T12:58:30.741Z,51.03
2023-04-13T13:01:04.443Z,51.13
2023-04-13T13:03:36.861Z,50.66
2023-04-13T13:06:13.999Z,49.23
2023-04-13T13:08:47.006Z,49.19
2023-04-13T13:11:21.389Z,49.32
2023-04-13T13:13:52.618Z,48.42
2023-04-13T13:16:23.788Z,48.45
2023-04-13T13:18:55.357Z,47.83
2023-04-13T13:21:27.765Z,47.19
2023-04-13T13:24:01.159Z,47.05
2023-04-13T13:26:51.821Z,47.73
2023-04-13T13:29:09.546Z,47.28
2023-04-13T13:31:41.589Z,46.29
2023-04-13T13:34:12.663Z,46.68
2023-04-13T13:36:43.179Z,46.76
2023-04-13T13:39:17.847Z,47.53
2023-04-13T13:41:53.971Z,48.13
2023-04-13T13:44:25.961Z,48.76
2023-04-13T13:46:57.056Z,48.74
2023-04-13T13:49:29.435Z,48.76
2023-04-13T13:52:02.045Z,48.79
2023-04-13T13:54:34.966Z,48.01
2023-04-13T13:57:07.496Z,47.42
2023-04-13T13:59:38.992Z,46.95
2023-04-13T14:02:12.344Z,47.43
2023-04-13T14:04:44.446Z,47.63
2023-04-13T14:07:15.990Z,48.06
2023-04-13T14:09:48.682Z,47.85
2023-04-13T14:12:21.053Z,47.32
2023-04-13T14:14:54.446Z,47.65
2023-04-13T14:17:26.238Z,47.18
2023-04-13T14:19:56.796Z,47.26
2023-04-13T14:22:27.665Z,47.23
2023-04-13T14:24:59.539Z,46.80
2023-04-13T14:27:32.536Z,46.96
2023-04-13T14:30:04.116Z,47.04
2023-04-13T14:32:35.213Z,48.02
2023-04-13T14:35:06.377Z,47.93
2023-04-13T14:37:38.649Z,48.40
2023-04-13T14:40:13.425Z,48.07
2023-04-13T14:42:45.599Z,48.83
2023-04-13T14:45:17.721Z,49.41
2023-04-13T14:47:48.691Z,49.49
2023-04-13T14:50:19.502Z,49.19
2023-04-13T14:52:51.054Z,48.63
2023-04-13T14:55:21.761Z,49.14
2023-04-13T14:57:53.655Z,48.68
2023-04-13T15:00:25.800Z,48.86
2023-04-13T15:02:57.178Z,48.46
2023-04-13T15:05:28.390Z,48.74
2023-04-13T15:07:59.232Z,49.21
2023-04-13T15:10:30.408Z,48.61
2023-04-13T15:13:01.980Z,48.07
2023-04-13T15:15:34.457Z,49.07
2023-04-13T15:18:07.625Z,48.28
2023-04-13T15:20:38.188Z,47.14
2023-04-13T15:23:09.038Z,47.63
2023-04-13T15:25:41.858Z,47.95
2023-04-13T15:28:12.949Z,49.78
2023-04-13T15:30:43.526Z,50.42
2023-04-13T15:33:14.241Z,49.96
2023-04-13T15:35:45.078Z,50.60
2023-04-13T15:38:18.689Z,51.02
2023-04-13T15:40:51.306Z,50.46
2023-04-13T15:43:22.080Z,50.56
2023-04-13T15:45:54.604Z,49.95
2023-04-13T15:48:27.195Z,50.27
2023-04-13T15:51:03.881Z,50.30
2023-04-13T15:53:34.396Z,49.77
2023-04-13T15:56:06.614Z,49.79
2023-04-13T15:58:37.365Z,49.25
2023-04-13T16:01:11.315Z,49.49
2023-04-13T16:06:05.228Z,50.46
2023-04-13T16:08:35.887Z,49.91
2023-04-13T16:11:07.752Z,50.33
2023-04-13T16:13:49.457Z,50.56
2023-04-13T16:16:14.951Z,50.48
2023-04-13T16:18:45.673Z,50.38
2023-04-13T16:21:23.847Z,49.95
2023-04-13T16:23:54.368Z,50.21
2023-04-13T16:26:26.698Z,50.64
2023-04-13T16:28:57.987Z,50.24
2023-04-13T16:31:31.237Z,50.08
2023-04-13T16:34:11.783Z,49.67
2023-04-13T16:36:36.932Z,50.18
2023-04-13T16:39:13.385Z,50.05
2023-04-13T16:41:44.903Z,50.02
2023-04-13T16:44:16.631Z,49.41
2023-04-13T16:46:51.137Z,49.36
2023-04-13T16:49:24.218Z,49.90
2023-04-13T16:51:55.244Z,50.53
2023-04-13T16:54:26.404Z,50.29
2023-04-13T16:56:58.633Z,50.08
2023-04-13T16:59:32.280Z,50.49
2023-04-13T17:02:03.458Z,50.70
2023-04-13T17:04:34.264Z,51.38
2023-04-13T17:07:06.420Z,51.89
2023-04-13T17:09:37.437Z,51.89
2023-04-13T17:12:09.596Z,51.65
2023-04-13T17:14:43.303Z,51.62
2023-04-13T17:17:14.036Z,52.56
2023-04-13T17:19:49.198Z,52.93
2023-04-13T17:22:20.036Z,53.71
2023-04-13T17:24:51.074Z,53.77
2023-04-13T17:27:23.255Z,54.78
2023-04-13T17:30:03.514Z,54.97
2023-04-13T17:32:34.949Z,54.43
2023-04-13T17:35:07.476Z,54.98
2023-04-13T17:37:38.115Z,55.33
2023-04-13T17:40:10.508Z,56.16
2023-04-13T17:42:41.586Z,57.22
2023-04-13T17:45:14.649Z,56.85
2023-04-13T17:47:49.746Z,57.26
2023-04-13T17:50:21.406Z,57.30
2023-04-13T17:52:52.276Z,57.38
2023-04-13T17:55:24.517Z,58.09
2023-04-13T17:57:55.105Z,58.85
2023-04-13T18:00:27.939Z,59.29
2023-04-13T18:02:59.070Z,59.82
2023-04-13T18:05:31.224Z,60.30
2023-04-13T18:08:01.895Z,60.83
2023-04-13T18:10:33.028Z,60.71
2023-04-13T18:13:05.513Z,60.87
2023-04-13T18:15:37.327Z,61.34
2023-04-13T18:18:09.456Z,61.90
2023-04-13T18:20:41.458Z,61.75
2023-04-13T18:23:12.693Z,62.09
2023-04-13T18:25:43.273Z,62.44
2023-04-13T18:28:15.190Z,62.73
2023-04-13T18:30:46.751Z,63.03
2023-04-13T18:33:19.056Z,63.60
2023-04-13T18:35:50.523Z,63.90
2023-04-13T18:38:22.767Z,63.92
2023-04-13T18:40:54.901Z,64.24
2023-04-13T18:43:25.434Z,64.53
2023-04-13T18:45:56.941Z,64.83
2023-04-13T18:48:30.990Z,65.00
2023-04-13T18:51:03.788Z,65.45
2023-04-13T18:53:35.599Z,65.98
2023-04-13T18:56:09.288Z,66.23
2023-04-13T18:58:40.152Z,66.79
2023-04-13T19:01:20.226Z,67.10
2023-04-13T19:03:54.194Z,67.20
2023-04-13T19:06:27.921Z,67.41
2023-04-13T19:08:58.620Z,67.66
2023-04-13T19:11:29.107Z,67.86
2023-04-13T19:14:00.924Z,67.49
2023-04-13T19:16:33.730Z,67.67
2023-04-13T19:19:07.623Z,67.47
2023-04-13T19:21:39.756Z,67.82
2023-04-13T19:24:12.901Z,68.12
2023-04-13T19:26:45.037Z,68.01
2023-04-13T19:29:17.331Z,67.84
2023-04-13T19:31:49.976Z,68.39
2023-04-13T19:34:20.716Z,69.00
2023-04-13T19:36:53.937Z,69.48
2023-04-13T19:39:24.565Z,69.60
2023-04-13T19:41:56.970Z,69.97
2023-04-13T19:44:28.040Z,70.01
2023-04-13T19:46:58.952Z,69.85
2023-04-13T19:49:29.522Z,70.74
2023-04-13T19:52:00.104Z,70.76
2023-04-13T19:54:31.143Z,70.81
2023-04-13T19:57:02.194Z,70.07
2023-04-13T19:59:32.721Z,69.85
2023-04-13T20:02:04.920Z,69.76
2023-04-13T20:04:37.754Z,70.08
2023-04-13T20:07:11.823Z,70.18
2023-04-13T20:09:42.000Z,70.02
2023-04-13T20:12:13.980Z,69.67
2023-04-13T20:14:46.472Z,69.78
2023-04-13T20:17:17.132Z,69.68
2023-04-13T20:19:47.960Z,70.68
2023-04-13T20:22:18.610Z,70.84
2023-04-13T20:24:49.591Z,71.13
2023-04-13T20:27:23.946Z,71.06
2023-04-13T20:29:54.460Z,71.15
2023-04-13T20:32:25.356Z,71.09
2023-04-13T20:34:56.359Z,71.14
2023-04-13T20:37:28.578Z,71.11
2023-04-13T20:40:02.177Z,71.28
2023-04-13T20:42:35.537Z,71.42
2023-04-13T20:45:10.846Z,71.48
2023-04-13T20:47:45.668Z,71.12
2023-04-13T20:50:25.709Z,70.77
2023-04-13T20:52:56.940Z,70.75
2023-04-13T20:55:27.812Z,70.80
2023-04-13T20:58:01.371Z,70.72
2023-04-13T21:00:34.100Z,71.04
2023-04-13T21:03:05.148Z,71.33
2023-04-13T21:05:37.348Z,72.71
2023-04-13T21:08:09.511Z,72.45
2023-04-13T21:10:39.992Z,72.77
2023-04-13T21:13:10.953Z,72.84
2023-04-13T21:15:41.528Z,73.07
2023-04-13T21:18:13.758Z,73.06
2023-04-13T21:20:44.744Z,73.13
2023-04-13T21:23:15.326Z,73.36
2023-04-13T21:25:48.684Z,73.58
2023-04-13T21:28:20.489Z,73.72
2023-04-13T21:30:52.271Z,73.77
2023-04-13T21:33:23.758Z,73.72
2023-04-13T21:35:54.418Z,74.02
2023-04-13T21:38:25.465Z,74.04
2023-04-13T21:40:56.340Z,73.45
2023-04-13T21:43:27.206Z,73.40
2023-04-13T21:45:58.820Z,73.93
2023-04-13T21:48:32.571Z,74.07
2023-04-13T21:51:04.320Z,74.04
2023-04-13T21:53:36.717Z,74.17
2023-04-13T21:56:07.697Z,74.17
2023-04-13T21:58:50.634Z,73.16
2023-04-13T22:01:23.020Z,73.14
2023-04-13T22:03:54.320Z,73.69
2023-04-13T22:06:27.451Z,74.29
2023-04-13T22:09:01.203Z,74.21
2023-04-13T22:11:33.731Z,73.97
2023-04-13T22:14:04.280Z,73.82
2023-04-13T22:16:36.424Z,73.87
2023-04-13T22:19:07.019Z,74.06
2023-04-13T22:21:38.995Z,74.16
2023-04-13T22:24:11.344Z,74.43
2023-04-13T22:26:42.078Z,74.68
2023-04-13T22:29:15.476Z,75.00
2023-04-13T22:31:46.167Z,75.17
2023-04-13T22:34:17.171Z,75.16
2023-04-13T22:36:52.256Z,75.23
2023-04-13T22:39:22.909Z,75.26
2023-04-13T22:41:53.419Z,75.06
2023-04-13T22:44:24.283Z,74.73
2023-04-13T22:46:55.638Z,74.40
2023-04-13T22:49:26.274Z,74.15
2023-04-13T22:51:56.977Z,73.91
2023-04-13T22:54:27.543Z,73.53
2023-04-13T22:57:00.140Z,73.83
2023-04-13T22:59:31.487Z,73.97
2023-04-13T23:02:03.692Z,74.00
2023-04-13T23:04:34.727Z,74.22
2023-04-13T23:07:07.690Z,74.38
2023-04-13T23:09:38.453Z,74.61
2023-04-13T23:12:08.978Z,74.68
2023-04-13T23:14:41.556Z,74.61
2023-04-13T23:17:12.672Z,74.34
2023-04-13T23:19:43.302Z,73.77
2023-04-13T23:22:14.205Z,73.34
2023-04-13T23:24:44.810Z,73.53
2023-04-13T23:27:15.549Z,73.19
2023-04-13T23:29:51.878Z,73.39
2023-04-13T23:32:22.597Z,74.10
2023-04-13T23:34:56.014Z,74.00
2023-04-13T23:37:26.529Z,73.99
2023-04-13T23:40:00.758Z,74.12
2023-04-13T23:42:31.456Z,73.77
2023-04-13T23:45:04.191Z,73.98
2023-04-13T23:47:35.441Z,73.45
2023-04-13T23:50:08.531Z,73.44
2023-04-13T23:52:39.409Z,73.83
2023-04-13T23:55:11.098Z,73.24
2023-04-13T23:57:41.856Z,72.99
